Time;durP1;ratioP1;P1;durP2;ratioP2;P2;SDS_P1;SDS_P2;PMS_P1;PMS_P2;Temp;Humidity;BMP_temperature;BMP_pressure;BME280_temperature;BME280_humidity;BME280_pressure;Samples;Min_cycle;Max_cycle;Signal;HPM_P1;HPM_P2
2022/11/16 00:01:01;;;;;;;32.45;23.25;;;;;;;7.59;100.00;154436.59;5011334;28;20049;-75
2022/11/16 00:03:29;;;;;;;32.08;22.92;;;;;;;7.58;100.00;154434.06;4994496;28;20372;-77
2022/11/16 00:06:00;;;;;;;29.55;22.35;;;;;;;7.55;100.00;154427.69;4993637;28;20045;-77
2022/11/16 00:08:28;;;;;;;30.80;23.00;;;;;;;7.50;100.00;154414.84;4993257;28;20040;-76
2022/11/16 00:10:54;;;;;;;33.25;23.90;;;;;;;7.52;100.00;154419.97;4990716;28;20034;-78
2022/11/16 00:13:19;;;;;;;32.03;24.02;;;;;;;7.49;100.00;154412.28;4993339;28;20038;-78
2022/11/16 00:15:56;;;;;;;32.25;23.52;;;;;;;7.51;100.00;154416.13;5014529;28;20100;-77
2022/11/16 00:18:22;;;;;;;34.75;24.02;;;;;;;7.46;100.00;154404.63;5016579;28;20117;-79
2022/11/16 00:20:49;;;;;;;33.28;24.02;;;;;;;7.41;100.00;154391.81;4989649;28;20644;-77
2022/11/16 00:23:15;;;;;;;36.33;23.85;;;;;;;7.37;100.00;154382.84;5014223;28;20069;-77
2022/11/16 00:25:41;;;;;;;36.10;25.50;;;;;;;7.35;100.00;154376.47;5011455;28;20030;-78
2022/11/16 00:28:06;;;;;;;36.85;25.13;;;;;;;7.30;100.00;154364.91;4974250;28;20110;-77
2022/11/16 00:30:32;;;;;;;36.88;26.50;;;;;;;7.28;100.00;154358.53;4984587;28;20029;-78
2022/11/16 00:33:02;;;;;;;36.10;25.80;;;;;;;7.25;100.00;154350.81;5015989;28;20040;-78
2022/11/16 00:35:28;;;;;;;35.53;26.23;;;;;;;7.20;100.00;154339.34;4986184;28;20041;-78
2022/11/16 00:37:54;;;;;;;37.45;25.83;;;;;;;7.15;100.00;154327.78;4979060;28;20049;-75
2022/11/16 00:40:20;;;;;;;37.70;26.30;;;;;;;7.12;100.00;154318.81;4996067;28;20549;-78
2022/11/16 00:42:49;;;;;;;40.17;27.70;;;;;;;7.13;100.00;154321.41;5005091;28;20061;-78
2022/11/16 00:45:15;;;;;;;41.22;26.75;;;;;;;7.12;100.00;154320.13;4993701;28;20042;-79
2022/11/16 00:47:41;;;;;;;41.40;27.58;;;;;;;7.04;100.00;154299.63;4985182;28;20049;-76
2022/11/16 00:50:07;;;;;;;42.85;28.63;;;;;;;7.02;100.00;154294.50;5012534;28;20041;-75
2022/11/16 00:52:33;;;;;;;40.90;27.75;;;;;;;6.91;100.00;154266.34;4988128;28;20294;-76
2022/11/16 00:54:59;;;;;;;40.58;28.65;;;;;;;6.96;100.00;154279.16;4990396;28;20093;-77
2022/11/16 00:57:25;;;;;;;43.33;30.08;;;;;;;6.94;100.00;154275.31;4984829;28;20099;-77
2022/11/16 00:59:51;;;;;;;43.78;28.60;;;;;;;6.93;100.00;154271.47;4978101;28;20030;-76
2022/11/16 01:02:17;;;;;;;46.55;31.02;;;;;;;6.88;100.00;154258.69;4995536;28;20033;-77
2022/11/16 01:04:43;;;;;;;44.78;29.67;;;;;;;6.91;100.00;154267.66;4995471;28;20037;-78
2022/11/16 01:07:09;;;;;;;41.58;29.50;;;;;;;6.89;100.00;154262.50;4981820;28;20112;-77
2022/11/16 01:09:35;;;;;;;43.60;28.65;;;;;;;6.93;100.00;154272.78;4999887;28;20689;-78
2022/11/16 01:12:09;;;;;;;41.15;28.70;;;;;;;6.86;100.00;154254.84;4982695;28;20026;-73
2022/11/16 01:14:44;;;;;;;45.70;30.10;;;;;;;6.80;100.00;154240.78;4988543;28;20088;-78
2022/11/16 01:17:10;;;;;;;46.22;30.05;;;;;;;6.87;100.00;154257.38;4979042;28;20761;-79
2022/11/16 01:19:36;;;;;;;45.00;28.58;;;;;;;6.86;100.00;154253.59;4990963;28;20038;-77
2022/11/16 01:22:02;;;;;;;45.90;29.20;;;;;;;6.84;100.00;154249.72;4987908;28;20080;-76
2022/11/16 01:24:28;;;;;;;46.88;30.48;;;;;;;6.78;100.00;154235.66;4996184;28;20444;-77
2022/11/16 01:26:56;;;;;;;47.20;30.67;;;;;;;6.83;100.00;154247.16;5011122;28;20030;-75
2022/11/16 01:29:25;;;;;;;43.00;29.50;;;;;;;6.80;100.00;154240.78;4993388;28;20036;-76
2022/11/16 01:31:55;;;;;;;47.25;29.60;;;;;;;6.78;100.00;154234.34;4977316;28;20059;-76
2022/11/16 01:34:21;;;;;;;44.20;29.85;;;;;;;6.70;100.00;154215.16;4993450;28;20107;-78
2022/11/16 01:36:48;;;;;;;43.80;29.27;;;;;;;6.79;100.00;154236.94;4978954;28;20035;-75
2022/11/16 01:39:15;;;;;;;43.65;29.30;;;;;;;6.75;100.00;154227.97;4996122;28;20050;-79
2022/11/16 01:41:46;;;;;;;45.70;30.70;;;;;;;6.72;100.00;154220.28;4981218;28;20025;-74
2022/11/16 01:44:13;;;;;;;48.95;30.63;;;;;;;6.66;100.00;154204.91;4979407;28;20093;-77
2022/11/16 01:46:47;;;;;;;46.45;30.02;;;;;;;6.59;100.00;154188.31;4993150;28;20492;-76
2022/11/16 01:49:17;;;;;;;45.83;30.08;;;;;;;6.66;100.00;154203.66;4988731;28;20030;-76
2022/11/16 01:51:48;;;;;;;44.25;29.15;;;;;;;6.66;100.00;154203.66;4995632;28;20034;-78
2022/11/16 01:54:15;;;;;;;47.67;30.02;;;;;;;6.65;100.00;154201.06;4994611;28;20093;-77
2022/11/16 01:57:10;;;;;;;46.95;30.15;;;;;;;6.61;100.00;154192.13;4990761;28;20103;-75
2022/11/16 01:59:50;;;;;;;45.08;28.60;;;;;;;6.57;100.00;154181.88;5008746;28;20030;-77
2022/11/16 02:02:18;;;;;;;43.75;29.20;;;;;;;6.54;100.00;154174.25;4991024;28;20044;-77
2022/11/16 02:04:46;;;;;;;45.10;30.00;;;;;;;6.55;100.00;154178.03;4992318;28;20042;-77
2022/11/16 02:10:57;;;;;;;48.75;30.55;;;;;;;6.48;100.00;154160.16;4994581;28;20037;-77
2022/11/16 02:13:31;;;;;;;45.72;30.42;;;;;;;6.43;100.00;154148.63;4985550;28;20098;-75
2022/11/16 02:16:35;;;;;;;46.65;29.45;;;;;;;6.42;100.00;154144.78;5009494;28;20038;-75
2022/11/16 02:19:26;;;;;;;50.20;31.42;;;;;;;6.39;100.00;154137.13;4977473;28;20029;-77
2022/11/16 02:22:26;;;;;;;50.33;29.30;;;;;;;6.35;100.00;154126.91;4990485;28;20037;-75
2022/11/16 02:25:20;;;;;;;48.78;30.05;;;;;;;6.36;100.00;154130.69;4982530;28;20088;-77
2022/11/16 02:28:21;;;;;;;47.95;29.52;;;;;;;6.33;100.00;154121.75;5009636;28;20029;-78
2022/11/16 02:30:51;;;;;;;49.25;31.35;;;;;;;6.31;100.00;154117.94;4994274;28;20072;-77
2022/11/16 02:33:22;;;;;;;47.78;30.10;;;;;;;6.36;100.00;154130.69;4993442;28;20052;-77
2022/11/16 02:35:55;;;;;;;47.80;29.20;;;;;;;6.37;100.00;154132.03;4988119;28;20443;-76
2022/11/16 02:38:27;;;;;;;48.58;30.08;;;;;;;6.34;100.00;154124.31;4989453;28;20124;-77
2022/11/16 02:41:00;;;;;;;50.10;30.65;;;;;;;6.30;100.00;154114.09;4997064;28;20053;-78
2022/11/16 02:43:32;;;;;;;49.28;30.77;;;;;;;6.35;100.00;154126.91;4992596;28;20026;-78
2022/11/16 02:46:03;;;;;;;49.85;30.77;;;;;;;6.33;100.00;154121.75;4989760;28;20073;-78
2022/11/16 02:48:35;;;;;;;51.75;31.13;;;;;;;6.33;100.00;154121.75;4997166;28;20145;-76
2022/11/16 02:51:02;;;;;;;55.72;33.35;;;;;;;6.34;100.00;154124.31;4994810;28;20117;-76
2022/11/16 02:53:32;;;;;;;51.85;32.30;;;;;;;6.30;100.00;154115.38;5004926;28;20057;-76
2022/11/16 02:55:58;;;;;;;52.40;32.17;;;;;;;6.30;100.00;154114.09;5029769;28;20041;-76
2022/11/16 02:58:26;;;;;;;54.70;33.15;;;;;;;6.31;100.00;154117.94;4995412;28;20034;-76
2022/11/16 03:00:57;;;;;;;58.40;34.08;;;;;;;6.31;100.00;154116.63;5009441;28;20105;-77
2022/11/16 03:03:31;;;;;;;58.50;34.33;;;;;;;6.26;100.00;154103.88;4992059;28;20038;-78
2022/11/16 03:06:07;;;;;;;56.65;32.97;;;;;;;6.27;100.00;154107.66;4994433;28;20053;-75
2022/11/16 03:08:49;;;;;;;57.42;33.58;;;;;;;6.26;100.00;154105.13;4987975;28;20041;-76
2022/11/16 03:14:04;;;;;;;59.40;34.78;;;;;;;6.33;100.00;154121.75;4994243;28;20407;-77
2022/11/16 03:16:39;;;;;;;59.28;35.75;;;;;;;6.23;100.00;154098.75;5024156;28;20034;-76
2022/11/16 03:19:09;;;;;;;58.72;34.35;;;;;;;6.34;100.00;154124.31;4981113;28;20034;-77
2022/11/16 03:21:50;;;;;;;64.93;35.38;;;;;;;6.30;100.00;154114.09;4982522;28;20065;-78
2022/11/16 03:24:19;;;;;;;64.90;35.53;;;;;;;6.32;100.00;154119.22;4994146;28;20530;-77
2022/11/16 03:27:04;;;;;;;67.28;36.40;;;;;;;6.29;100.00;154111.50;4997839;28;20037;-78
2022/11/16 03:29:33;;;;;;;66.63;37.53;;;;;;;6.23;100.00;154098.75;5026489;28;20041;-78
2022/11/16 03:32:24;;;;;;;66.43;36.72;;;;;;;6.27;100.00;154106.41;4984884;28;20038;-75
2022/11/16 03:34:58;;;;;;;66.65;36.75;;;;;;;6.24;100.00;154101.28;5011238;28;20034;-78
2022/11/16 03:37:27;;;;;;;69.00;36.55;;;;;;;6.22;100.00;154096.19;4994486;28;20037;-77
2022/11/16 03:39:54;;;;;;;67.93;37.13;;;;;;;6.19;100.00;154087.22;4998003;28;20439;-76
2022/11/16 03:42:23;;;;;;;67.18;37.08;;;;;;;6.17;100.00;154082.09;4996311;28;21008;-76
2022/11/16 03:44:49;;;;;;;65.80;36.25;;;;;;;6.23;100.00;154097.44;4998015;28;20038;-77
2022/11/16 03:47:15;;;;;;;66.35;35.72;;;;;;;6.19;100.00;154088.47;5011305;28;20041;-77
2022/11/16 03:49:46;;;;;;;67.22;36.33;;;;;;;6.22;100.00;154094.91;5000347;28;20034;-77
2022/11/16 03:52:16;;;;;;;66.30;37.00;;;;;;;6.21;100.00;154093.59;5013399;28;20038;-76
2022/11/16 03:54:42;;;;;;;61.38;34.50;;;;;;;6.24;100.00;154101.28;4993672;28;20034;-77
2022/11/16 03:57:14;;;;;;;61.75;34.28;;;;;;;6.22;100.00;154094.91;4996603;28;20038;-78
2022/11/16 03:59:42;;;;;;;63.22;35.17;;;;;;;6.22;100.00;154096.19;5005474;28;20040;-77
2022/11/16 04:02:08;;;;;;;64.80;33.88;;;;;;;6.22;100.00;154096.19;4995758;28;20042;-77
2022/11/16 04:24:37;;;;;;;57.60;32.03;;;;;;;6.11;100.00;154068.03;4991382;28;20114;-77
2022/11/16 04:29:53;;;;;;;62.88;33.78;;;;;;;6.09;100.00;154061.66;5011553;28;20090;-77
2022/11/16 04:37:47;;;;;;;63.55;33.70;;;;;;;6.06;100.00;154055.22;4992369;28;20066;-78
2022/11/16 04:40:16;;;;;;;63.30;33.95;;;;;;;6.03;100.00;154048.84;4986317;28;20091;-76
2022/11/16 04:42:42;;;;;;;67.22;34.67;;;;;;;6.02;100.00;154046.28;4993641;28;20030;-75
2022/11/16 04:47:53;;;;;;;64.40;34.33;;;;;;;6.04;100.00;154050.13;4997779;28;20491;-78
2022/11/16 04:50:22;;;;;;;57.30;32.13;;;;;;;6.04;100.00;154051.38;5028173;28;20092;-77
2022/11/16 04:52:50;;;;;;;57.53;32.53;;;;;;;5.97;100.00;154033.50;4972402;28;20109;-78
2022/11/16 04:55:16;;;;;;;57.55;33.72;;;;;;;6.00;100.00;154041.16;5009155;28;20120;-77
2022/11/16 04:57:43;;;;;;;62.63;34.40;;;;;;;5.94;100.00;154025.78;4995183;28;20030;-76
2022/11/16 05:00:10;;;;;;;59.30;33.97;;;;;;;5.95;100.00;154027.03;5012765;28;20037;-78
2022/11/16 05:02:38;;;;;;;60.25;33.00;;;;;;;5.96;100.00;154029.66;4996975;28;20026;-78
2022/11/16 05:05:05;;;;;;;62.17;34.72;;;;;;;5.94;100.00;154024.50;4996318;28;20034;-77
2022/11/16 05:07:31;;;;;;;64.18;35.15;;;;;;;5.94;100.00;154024.50;4994026;28;20096;-77
2022/11/16 05:10:08;;;;;;;60.85;34.28;;;;;;;5.91;100.00;154016.81;4995084;28;20188;-77
2022/11/16 05:12:34;;;;;;;61.78;34.85;;;;;;;5.91;100.00;154016.81;5005797;28;20034;-78
2022/11/16 05:15:05;;;;;;;60.45;33.35;;;;;;;5.85;100.00;154002.75;4992429;28;20034;-77
2022/11/16 05:17:32;;;;;;;66.90;35.55;;;;;;;5.79;100.00;153988.69;4974347;28;20052;-78
2022/11/16 05:22:56;;;;;;;64.30;33.50;;;;;;;5.85;100.00;154004.00;5009881;28;20026;-78
2022/11/16 05:25:24;;;;;;;62.53;32.60;;;;;;;5.84;100.00;154001.47;5011479;28;20038;-75
2022/11/16 05:27:50;;;;;;;60.40;34.58;;;;;;;5.83;100.00;153998.91;4976753;28;20108;-77
2022/11/16 05:30:16;;;;;;;66.28;34.20;;;;;;;5.64;100.00;153951.59;4989437;28;20595;-76
2022/11/16 05:32:42;;;;;;;63.45;34.17;;;;;;;5.80;100.00;153991.25;4995611;28;20049;-78
2022/11/16 05:35:09;;;;;;;60.90;33.50;;;;;;;5.77;100.00;153982.31;5009109;28;20032;-77
2022/11/16 05:37:35;;;;;;;57.78;32.38;;;;;;;5.73;100.00;153972.09;4980863;28;20509;-78
2022/11/16 05:40:03;;;;;;;58.60;32.53;;;;;;;5.64;100.00;153951.59;5027939;28;20120;-77
2022/11/16 05:42:39;;;;;;;62.92;33.55;;;;;;;5.63;100.00;153949.06;5022607;28;20117;-78
2022/11/16 05:45:06;;;;;;;61.65;33.67;;;;;;;5.62;100.00;153946.47;4992605;28;20121;-78
2022/11/16 05:47:32;;;;;;;58.97;32.15;;;;;;;5.68;100.00;153959.28;4996193;28;20122;-75
2022/11/16 05:49:58;;;;;;;61.90;32.45;;;;;;;5.66;100.00;153955.44;4992036;28;20471;-75
2022/11/16 05:52:26;;;;;;;65.03;32.47;;;;;;;5.63;100.00;153949.06;5009567;28;20042;-77
2022/11/16 05:54:52;;;;;;;63.72;33.55;;;;;;;5.63;100.00;153947.75;4992281;28;20124;-77
2022/11/16 05:57:18;;;;;;;65.55;34.13;;;;;;;5.61;100.00;153942.63;4996271;28;20053;-75
2022/11/16 05:59:44;;;;;;;64.20;33.50;;;;;;;5.61;100.00;153942.63;4995833;28;20038;-78
2022/11/16 06:02:09;;;;;;;61.95;32.22;;;;;;;5.60;100.00;153941.38;5011085;28;20476;-76
2022/11/16 06:04:35;;;;;;;65.65;31.92;;;;;;;5.71;100.00;153968.25;4996500;28;20032;-77
2022/11/16 06:07:01;;;;;;;55.88;31.75;;;;;;;5.72;100.00;153970.78;4993418;28;20046;-78
2022/11/16 06:09:30;;;;;;;59.08;31.50;;;;;;;5.76;100.00;153981.00;5011451;28;20041;-76
2022/11/16 06:12:03;;;;;;;59.45;30.85;;;;;;;5.77;100.00;153983.56;4993764;28;20032;-79
2022/11/16 06:14:29;;;;;;;58.58;31.58;;;;;;;5.77;100.00;153982.31;4990370;28;20042;-77
2022/11/16 06:16:54;;;;;;;55.85;31.42;;;;;;;5.71;100.00;153966.91;4979573;28;20036;-76
2022/11/16 06:19:20;;;;;;;54.42;31.27;;;;;;;5.74;100.00;153974.63;4997257;28;20046;-75
2022/11/16 06:21:46;;;;;;;56.88;31.50;;;;;;;5.68;100.00;153960.53;5008550;28;20033;-78
2022/11/16 06:24:16;;;;;;;57.85;30.65;;;;;;;5.70;100.00;153964.41;5005268;28;20069;-78
2022/11/16 06:26:42;;;;;;;53.83;30.85;;;;;;;5.63;100.00;153947.75;4977261;28;20747;-75
2022/11/16 06:29:08;;;;;;;55.13;30.20;;;;;;;5.63;100.00;153947.75;4977946;28;20109;-77
2022/11/16 06:31:34;;;;;;;56.38;31.02;;;;;;;5.60;100.00;153940.09;4977075;28;20037;-76
2022/11/16 06:34:01;;;;;;;53.60;31.38;;;;;;;5.56;100.00;153929.88;5007175;28;20037;-78
2022/11/16 06:36:28;;;;;;;59.80;32.25;;;;;;;5.53;100.00;153923.47;4988196;28;20038;-77
2022/11/16 06:38:55;;;;;;;62.13;32.80;;;;;;;5.56;100.00;153929.88;4993430;28;20046;-78
2022/11/16 06:41:21;;;;;;;59.10;32.08;;;;;;;5.55;100.00;153928.56;4987889;28;20109;-77
2022/11/16 06:43:49;;;;;;;57.90;31.63;;;;;;;5.56;100.00;153929.88;4988366;28;20034;-78
2022/11/16 06:46:20;;;;;;;59.47;32.55;;;;;;;5.52;100.00;153919.63;4992174;28;20523;-77
2022/11/16 06:48:46;;;;;;;59.00;32.08;;;;;;;5.54;100.00;153924.72;4977415;28;20045;-78
2022/11/16 06:51:15;;;;;;;64.15;33.13;;;;;;;5.58;100.00;153935.00;5008065;28;20030;-78
2022/11/16 06:53:41;;;;;;;57.70;32.05;;;;;;;5.54;100.00;153926.03;4977134;28;20062;-75
2022/11/16 06:56:10;;;;;;;62.13;33.10;;;;;;;5.57;100.00;153933.69;5008265;28;20057;-78
2022/11/16 06:58:41;;;;;;;57.80;31.08;;;;;;;5.53;100.00;153923.47;5009978;28;20064;-75
2022/11/16 07:01:08;;;;;;;58.20;33.25;;;;;;;5.56;100.00;153929.88;4988583;28;20484;-78
2022/11/16 07:03:36;;;;;;;63.38;33.13;;;;;;;5.57;100.00;153932.41;4992562;28;20558;-75
2022/11/16 07:06:09;;;;;;;58.55;31.67;;;;;;;5.57;100.00;153933.69;5010442;28;20034;-75
2022/11/16 07:08:36;;;;;;;62.70;32.63;;;;;;;5.56;100.00;153931.16;5010231;28;20038;-76
2022/11/16 07:11:03;;;;;;;60.15;33.60;;;;;;;5.56;100.00;153931.16;4989815;28;20404;-77
2022/11/16 07:13:31;;;;;;;61.10;34.00;;;;;;;5.62;100.00;153946.47;4984751;28;20060;-78
2022/11/16 07:16:01;;;;;;;57.13;32.88;;;;;;;5.61;100.00;153943.94;5005699;28;20030;-77
2022/11/16 07:18:31;;;;;;;55.78;32.70;;;;;;;5.63;100.00;153947.75;4998510;28;20042;-77
2022/11/16 07:21:03;;;;;;;60.22;34.20;;;;;;;5.66;100.00;153955.44;4994422;28;20026;-75
2022/11/16 07:23:29;;;;;;;56.90;32.95;;;;;;;5.72;100.00;153970.78;4998376;28;20039;-75
2022/11/16 07:26:03;;;;;;;57.63;32.63;;;;;;;5.67;100.00;153958.00;4998824;28;20033;-77
2022/11/16 07:28:40;;;;;;;56.72;33.45;;;;;;;5.71;100.00;153968.25;4990216;28;20042;-76
2022/11/16 07:31:09;;;;;;;54.80;33.20;;;;;;;5.67;100.00;153958.00;4990114;28;20035;-77
2022/11/16 07:33:36;;;;;;;57.03;33.67;;;;;;;5.73;100.00;153972.09;4992416;28;20423;-75
2022/11/16 07:36:34;;;;;;;55.10;32.83;;;;;;;5.71;100.00;153966.91;5004756;28;20040;-78
2022/11/16 07:39:01;;;;;;;55.33;32.53;;;;;;;5.69;100.00;153963.13;4998562;28;20037;-77
2022/11/16 07:41:27;;;;;;;59.15;34.47;;;;;;;5.75;100.00;153977.19;4974617;28;20100;-78
2022/11/16 07:44:15;;;;;;;61.85;35.67;;;;;;;5.72;100.00;153970.78;4989914;28;20053;-77
2022/11/16 07:46:41;;;;;;;58.63;33.63;;;;;;;5.74;100.00;153975.88;4976717;28;20037;-75
2022/11/16 07:49:15;;;;;;;56.13;36.13;;;;;;;5.83;100.00;153998.91;4976928;28;20668;-78
2022/11/16 07:51:53;;;;;;;58.03;34.15;;;;;;;5.80;100.00;153989.94;4993693;28;20038;-77
2022/11/16 07:54:48;;;;;;;62.55;34.70;;;;;;;5.78;100.00;153986.16;5001419;28;20036;-78
2022/11/16 07:57:16;;;;;;;61.97;37.80;;;;;;;5.82;100.00;153995.06;5007537;28;20045;-77
2022/11/16 07:59:42;;;;;;;55.28;34.25;;;;;;;5.81;100.00;153992.53;4996347;28;20161;-78
2022/11/16 08:02:09;;;;;;;60.10;35.28;;;;;;;5.80;100.00;153991.25;5016156;28;20439;-77
2022/11/16 08:04:37;;;;;;;58.28;34.70;;;;;;;5.82;100.00;153996.38;4974467;28;20488;-78
2022/11/16 08:07:03;;;;;;;66.28;40.22;;;;;;;5.83;100.00;153998.91;4988773;28;20040;-77
2022/11/16 08:09:33;;;;;;;64.22;34.88;;;;;;;5.81;100.00;153992.53;4977316;28;20037;-76
2022/11/16 08:11:59;;;;;;;61.25;36.13;;;;;;;5.85;100.00;154002.75;4990555;28;20030;-78
2022/11/16 08:14:25;;;;;;;61.28;34.67;;;;;;;5.82;100.00;153996.38;4977323;28;20336;-78
2022/11/16 08:16:53;;;;;;;56.90;35.50;;;;;;;5.88;100.00;154009.13;4997279;28;20041;-78
2022/11/16 08:19:19;;;;;;;61.45;35.67;;;;;;;5.89;100.00;154012.97;4996073;28;20779;-78
2022/11/16 08:21:45;;;;;;;58.95;34.80;;;;;;;5.81;100.00;153993.78;4995716;28;20126;-75
2022/11/16 08:24:12;;;;;;;59.08;36.13;;;;;;;5.76;100.00;153981.00;5004781;28;20034;-75
2022/11/16 08:26:40;;;;;;;57.60;35.53;;;;;;;5.76;100.00;153981.00;4992098;28;20030;-77
2022/11/16 08:29:10;;;;;;;61.13;37.33;;;;;;;5.79;100.00;153988.69;4991618;28;20176;-74
2022/11/16 08:31:39;;;;;;;57.83;34.38;;;;;;;5.74;100.00;153975.88;4991630;28;20038;-78
2022/11/16 08:34:10;;;;;;;59.63;34.58;;;;;;;5.76;100.00;153979.72;5011116;28;20081;-78
2022/11/16 08:36:39;;;;;;;60.63;35.83;;;;;;;5.76;100.00;153979.72;4989053;28;20045;-77
2022/11/16 08:39:05;;;;;;;67.00;36.65;;;;;;;5.71;100.00;153968.25;4974481;28;20030;-78
2022/11/16 08:41:34;;;;;;;60.65;36.05;;;;;;;5.69;100.00;153961.81;4978986;28;20117;-77
2022/11/16 08:44:00;;;;;;;62.05;35.97;;;;;;;5.74;100.00;153974.63;5006601;28;20030;-78
2022/11/16 08:46:26;;;;;;;63.35;36.35;;;;;;;5.72;100.00;153969.50;5028421;28;20144;-78
2022/11/16 08:49:00;;;;;;;61.55;35.88;;;;;;;5.76;100.00;153981.00;4974285;28;20044;-76
2022/11/16 08:51:26;;;;;;;63.90;35.50;;;;;;;5.73;100.00;153973.34;4996491;28;20034;-78
2022/11/16 08:53:58;;;;;;;63.45;36.05;;;;;;;5.74;100.00;153975.88;4995551;28;20068;-79
2022/11/16 08:56:26;;;;;;;75.35;36.60;;;;;;;5.73;100.00;153972.09;4989602;28;20034;-79
2022/11/16 08:58:53;;;;;;;67.43;34.90;;;;;;;5.68;100.00;153960.53;4993679;28;20033;-78
2022/11/16 09:01:21;;;;;;;63.47;34.63;;;;;;;5.65;100.00;153954.16;4995257;28;20041;-78
2022/11/16 09:03:47;;;;;;;63.05;35.13;;;;;;;5.63;100.00;153949.06;4995872;28;20247;-77
2022/11/16 09:06:14;;;;;;;69.10;35.53;;;;;;;5.62;100.00;153945.22;4996022;28;20054;-79
2022/11/16 09:08:41;;;;;;;68.22;35.47;;;;;;;5.62;100.00;153946.47;4993015;28;20527;-76
2022/11/16 09:11:10;;;;;;;67.60;35.33;;;;;;;5.66;100.00;153955.44;4992788;28;20034;-78
2022/11/16 09:13:36;;;;;;;62.30;34.25;;;;;;;5.66;100.00;153955.44;5004262;28;20370;-76
2022/11/16 09:16:03;;;;;;;69.65;35.85;;;;;;;5.62;100.00;153946.47;4985755;28;20084;-78
2022/11/16 09:18:29;;;;;;;70.78;36.13;;;;;;;5.62;100.00;153945.22;5009607;28;20038;-76
2022/11/16 09:20:55;;;;;;;71.22;36.38;;;;;;;5.63;100.00;153947.75;4990835;28;20065;-77
2022/11/16 09:23:21;;;;;;;65.75;35.42;;;;;;;5.64;100.00;153950.31;5012417;28;20506;-77
2022/11/16 09:25:47;;;;;;;69.03;36.22;;;;;;;5.58;100.00;153936.25;4996160;28;20479;-78
2022/11/16 09:28:17;;;;;;;72.35;36.10;;;;;;;5.56;100.00;153931.16;4979597;28;20060;-78
2022/11/16 09:30:45;;;;;;;71.88;37.22;;;;;;;5.53;100.00;153923.47;4992599;28;20045;-76
2022/11/16 09:33:12;;;;;;;77.82;37.35;;;;;;;5.53;100.00;153923.47;4969295;28;20092;-77
2022/11/16 09:35:38;;;;;;;79.35;37.90;;;;;;;5.52;100.00;153920.94;5007238;28;20046;-76
2022/11/16 09:38:04;;;;;;;79.18;38.28;;;;;;;5.65;100.00;153952.84;4992549;28;20041;-78
2022/11/16 09:40:34;;;;;;;77.97;38.60;;;;;;;5.60;100.00;153940.09;4987894;28;20391;-77
2022/11/16 09:43:28;;;;;;;78.55;37.92;;;;;;;5.57;100.00;153933.69;4963846;28;20084;-76
2022/11/16 09:46:19;;;;;;;81.00;39.05;;;;;;;5.59;100.00;153937.53;5026439;28;20116;-77
2022/11/16 09:48:45;;;;;;;76.38;35.97;;;;;;;5.59;100.00;153938.78;4991918;28;20082;-78
2022/11/16 09:51:14;;;;;;;80.85;39.70;;;;;;;5.58;100.00;153935.00;4995206;28;20088;-77
2022/11/16 09:53:43;;;;;;;78.43;38.30;;;;;;;5.62;100.00;153945.22;4988590;28;20488;-76
2022/11/16 09:56:25;;;;;;;89.28;43.60;;;;;;;5.63;100.00;153947.75;4977034;28;20052;-77
2022/11/16 09:59:06;;;;;;;78.97;38.28;;;;;;;5.60;100.00;153941.38;4993462;28;20033;-77
2022/11/16 10:01:55;;;;;;;81.88;37.75;;;;;;;5.51;100.00;153917.09;4984357;28;20037;-76
2022/11/16 10:05:01;;;;;;;80.93;37.03;;;;;;;5.48;100.00;153910.66;5001357;28;20997;-76
2022/11/16 10:07:42;;;;;;;84.13;38.38;;;;;;;5.54;100.00;153924.72;4921564;28;20492;-76
2022/11/16 10:10:28;;;;;;;82.65;38.53;;;;;;;5.47;100.00;153909.41;4999013;28;20049;-76
2022/11/16 10:13:04;;;;;;;90.78;39.80;;;;;;;5.50;100.00;153915.81;4972624;28;20484;-75
2022/11/16 10:15:37;;;;;;;87.53;37.35;;;;;;;5.52;100.00;153920.94;4983424;28;20030;-77
2022/11/16 10:18:26;;;;;;;84.47;38.65;;;;;;;5.49;100.00;153913.25;4975390;28;20038;-73
2022/11/16 10:21:11;;;;;;;84.10;37.05;;;;;;;5.46;100.00;153906.88;4997054;28;20034;-77
2022/11/16 10:24:04;;;;;;;86.80;39.00;;;;;;;5.47;100.00;153909.41;4978032;28;20038;-77
2022/11/16 10:27:03;;;;;;;86.13;36.90;;;;;;;5.53;100.00;153923.47;4984887;28;20037;-79
2022/11/16 10:29:54;;;;;;;90.72;40.30;;;;;;;5.50;100.00;153915.81;5004683;28;20107;-76
2022/11/16 10:32:28;;;;;;;89.40;38.95;;;;;;;5.47;100.00;153909.41;4983280;28;21882;-76
2022/11/16 10:35:10;;;;;;;95.22;39.60;;;;;;;5.48;100.00;153910.66;4992018;28;20072;-75
2022/11/16 10:37:40;;;;;;;88.43;39.75;;;;;;;5.49;100.00;153911.97;4991684;28;20129;-76
2022/11/16 10:40:36;;;;;;;91.70;39.95;;;;;;;5.56;100.00;153929.88;4993523;28;20034;-76
2022/11/16 10:43:10;;;;;;;91.97;39.83;;;;;;;5.51;100.00;153917.09;4979530;28;20052;-77
2022/11/16 10:45:46;;;;;;;94.43;39.83;;;;;;;5.55;100.00;153927.31;5002673;28;20033;-78
2022/11/16 10:48:21;;;;;;;93.68;40.28;;;;;;;5.60;100.00;153940.09;4990508;28;20042;-78
2022/11/16 10:50:48;;;;;;;94.85;42.28;;;;;;;5.59;100.00;153937.53;4971473;28;20044;-77
2022/11/16 10:53:25;;;;;;;94.82;40.83;;;;;;;5.60;100.00;153940.09;4991326;28;20538;-78
2022/11/16 10:56:20;;;;;;;95.22;39.88;;;;;;;5.59;100.00;153937.53;5006091;28;20028;-75
2022/11/16 10:58:58;;;;;;;91.47;42.38;;;;;;;5.62;100.00;153945.22;4967579;28;20038;-76
2022/11/16 11:01:28;;;;;;;93.50;40.97;;;;;;;5.60;100.00;153941.38;4998977;28;20881;-79
2022/11/16 11:03:53;;;;;;;91.00;40.30;;;;;;;5.65;100.00;153952.84;4988325;28;20125;-77
2022/11/16 11:06:23;;;;;;;101.40;41.28;;;;;;;5.63;100.00;153949.06;5008496;28;20165;-77
2022/11/16 11:08:49;;;;;;;89.95;40.22;;;;;;;5.69;100.00;153963.13;4990328;28;20038;-77
2022/11/16 11:14:13;;;;;;;94.97;41.03;;;;;;;5.69;100.00;153963.13;4993468;28;20029;-75
2022/11/16 11:16:40;;;;;;;100.75;45.40;;;;;;;5.73;100.00;153972.09;4991174;28;20041;-77
2022/11/16 11:19:23;;;;;;;97.55;41.60;;;;;;;5.74;100.00;153975.88;5007667;28;20034;-76
2022/11/16 11:21:54;;;;;;;94.20;40.70;;;;;;;5.78;100.00;153984.84;4990606;28;20692;-75
2022/11/16 11:24:20;;;;;;;97.97;41.90;;;;;;;5.80;100.00;153991.25;4975167;28;21459;-77
2022/11/16 11:26:52;;;;;;;97.43;40.85;;;;;;;5.84;100.00;154001.47;4992738;28;20041;-76
2022/11/16 11:29:33;;;;;;;96.63;40.40;;;;;;;5.79;100.00;153987.41;4992230;28;20077;-76
2022/11/16 11:32:04;;;;;;;107.05;43.10;;;;;;;5.80;100.00;153991.25;4990165;28;20034;-75
2022/11/16 11:34:38;;;;;;;99.40;41.08;;;;;;;5.80;100.00;153989.94;5014388;28;20077;-77
2022/11/16 11:37:12;;;;;;;106.85;42.70;;;;;;;5.82;100.00;153995.06;4988772;28;20068;-77
2022/11/16 11:39:37;;;;;;;100.05;41.70;;;;;;;5.81;100.00;153993.78;4980880;28;20359;-77
2022/11/16 11:42:12;;;;;;;114.75;43.15;;;;;;;5.82;100.00;153996.38;4992279;28;20492;-78
2022/11/16 11:44:49;;;;;;;104.57;42.10;;;;;;;5.83;100.00;153998.91;4992304;28;20045;-77
2022/11/16 11:47:40;;;;;;;103.55;41.30;;;;;;;5.85;100.00;154002.75;4993242;28;20409;-76
2022/11/16 11:50:19;;;;;;;103.15;43.60;;;;;;;5.89;100.00;154012.97;4977831;28;20042;-75
2022/11/16 11:52:51;;;;;;;105.50;43.03;;;;;;;5.95;100.00;154027.03;5010372;28;20037;-74
2022/11/16 11:55:17;;;;;;;103.90;43.17;;;;;;;5.96;100.00;154029.66;4992521;28;20049;-74
2022/11/16 11:57:46;;;;;;;110.10;43.92;;;;;;;5.99;100.00;154037.31;5007550;28;20491;-75
2022/11/16 12:00:13;;;;;;;100.75;42.03;;;;;;;5.96;100.00;154029.66;5018856;28;20038;-75
2022/11/16 12:03:09;;;;;;;103.10;42.40;;;;;;;6.01;100.00;154042.47;5007163;28;20032;-73
2022/11/16 12:05:47;;;;;;;99.53;43.13;;;;;;;6.06;100.00;154053.97;5007122;28;20049;-74
2022/11/16 12:08:13;;;;;;;96.07;42.42;;;;;;;6.04;100.00;154050.13;4993444;28;20246;-74
2022/11/16 12:10:50;;;;;;;105.30;42.45;;;;;;;6.11;100.00;154068.03;4992877;28;20041;-76